Fsl New York — 9VBQ8 — position and weather

sailwx.info

Track history (hours):
 
Tides and Currents Weather Stations Pressure Air Temp Water Temp Dewpoint Dewpoint Depression Visibility Wind Speed Wind Dir Waves Ship Positions

Fsl New York

Last reported at 2017-Jan-21 20:05 UTC. Time now 2017-Jan-23 17:01 UTC.
Position N 29°23' W 094°49'.

Length 145 m; draft 8.4 m.

Type: Tanker. MMSI: 565174000.

Date/timePositionNaut miles runAvg speedWind from/ knotsBaromVisibWave heightAir tempDewpointWater temp
2017-Jan-21 20:05N 29°23' W 094°49'510.0
2017-Jan-21 19:33N 29°28' W 094°51'10 9.9
2017-Jan-21 18:33N 29°36' W 094°57'8 8.0
2017-Jan-21 17:33N 29°43' W 095°01'0 0.0
2017-Jan-20 22:22N 29°43' W 095°01'4 4.5
2017-Jan-20 21:33N 29°46' W 095°04'  
2017-Jan-17 06:31N 29°43' W 095°15'5 5.3
2017-Jan-17 05:32N 29°44' W 095°09'7 6.5
2017-Jan-17 04:25N 29°42' W 095°01'1011.4
2017-Jan-17 03:34N 29°34' W 094°55'  
Track history (hours):
 
Tides and Currents Weather Stations Pressure Air Temp Water Temp Dewpoint Dewpoint Depression Visibility Wind Speed Wind Dir Waves Ship Positions

Fsl New York

Last reported at 2017-Jan-21 20:05 UTC. Time now 2017-Jan-23 17:01 UTC.
Position N 29°23' W 094°49'.

Length 145 m; draft 8.4 m.

Type: Tanker. MMSI: 565174000.

Date/timePositionNaut miles runAvg speedWind from/ knotsBaromVisibWave heightAir tempDewpointWater temp
2017-Jan-21 20:05N 29°23' W 094°49'510.0
2017-Jan-21 19:33N 29°28' W 094°51'10 9.9
2017-Jan-21 18:33N 29°36' W 094°57'8 8.0
2017-Jan-21 17:33N 29°43' W 095°01'0 0.0
2017-Jan-20 22:22N 29°43' W 095°01'4 4.5
2017-Jan-20 21:33N 29°46' W 095°04'  
2017-Jan-17 06:31N 29°43' W 095°15'5 5.3
2017-Jan-17 05:32N 29°44' W 095°09'7 6.5
2017-Jan-17 04:25N 29°42' W 095°01'1011.4
2017-Jan-17 03:34N 29°34' W 094°55'  

Dump ship's entire track history